ADDS METAR Data INFO
IDs: Format: Raw Decoded Include TAF

Data at: 1406 UTC 24 Feb 2018

KBCT 241247Z 12010G15KT 10SM SCT020 24/18 A3023
KBCT 241147Z 13008G14KT 10SM SCT020 23/19 A3021
KBCT 240347Z 11508KT 10SM FEW 018 BKN043 23/20 A3027 RMK LAST
KBCT 240247Z 11008KT 10SM FEW041 24/19 A3028
KBCT 240147Z 11008KT 10SM CLR 24/19 A3028
KBCT 240047Z 10006KT 10SM SCT023 SCT040 24/20 A3027
KBCT 232347Z 10006KT 10SM SCT026 24/19 A3027
KBCT 232247Z 11008G16KT 10SM BKN060 25/18 A3027
KBCT 232152Z 09008G15KT 10SM CLR 25/18 A3026
KBCT 232054Z 08010G17KT 10SM FEW022 26/17 A3027
KBCT 231947Z 10015KT 10SM SCT025 27/18 A3028
KBCT 231847Z 06010G17KT 10SM FEW022 27/18 A3030
KBCT 231747Z 09014KT 10SM SCT025 27/19 A3032
KBCT 231647Z 11012G20KT 10SM SCT025 27/19 A3034
KBCT 231547Z 12012G19KT 10SM FEW025 27/19 A3035
KBCT 231447Z 12011G17KT 10SM SCT025 26/20 A3035
KBCT 231347Z 12011G17KT 10SM BKN028 25/19 A3035
KBCT 231247Z 11011G17KT 10SM SCT026 24/19 A3034
KBCT 231147Z 11011G17KT 10SM BKN030 24/19 A3032
KBCT 230347Z 09011KT 10SM BKN060 24/19 A3033 RMK LAST
KBCT 230247Z 08010KT 10SM SCT022 24/20 A3034